Latest Weather Observations for Kingaroy

IDQ60901

Issued at 8:55 pm EST Wednesday 26 November 2014 (issued every 10 minutes, with the page automatically refreshed every 10 minutes)

About weather observations | Map of Brisbane area stations | Latest observations for Brisbane area | Other Formats
Station Details ID: 040922 Name: KINGAROY AIRPORT Lat: -26.57 Lon: 151.84 Height: 433.67 m
Data from the previous 72 hours. | See also: Recent months at Kingaroy
Date/Time
EST
Tmp

°C
App
Tmp
°C
Dew
Point
°C
Rel
Hum
%
Delta-T

°C
Wind Press
QNH
hPa
Press
MSL
hPa
Rain
since
9 am
mm
Dir
 
Spd
km/h
Gust
km/h
Spd
kts
Gust
kts
26/08:30pm 23.0 22.8 15.8 64 4.4 E 11 20 6 11 1018.4 1016.5 0.0
26/08:00pm 23.3 21.9 14.6 58 5.2 SE 15 20 8 11 1018.3 1016.4 0.0
26/07:30pm 23.3 22.1 14.0 56 5.6 SSE 13 19 7 10 1018.1 1016.2 0.0
26/07:00pm 23.5 23.2 13.4 53 6.0 SE 7 9 4 5 1018.0 1016.1 0.0
26/06:30pm 23.5 19.7 13.7 54 5.8 S 26 41 14 22 1017.3 1015.3 0.0
26/06:00pm 23.8 19.3 13.9 54 5.9 S 30 39 16 21 1016.9 1014.9 0.0
26/05:30pm 24.3 19.0 14.1 53 6.1 S 35 46 19 25 1016.7 1014.7 0.0
26/05:00pm 25.5 21.5 15.2 53 6.3 S 30 41 16 22 1016.4 1014.4 0.0
26/04:30pm 28.2 25.8 14.4 42 8.5 S 20 32 11 17 1015.6 1013.6 0.0
26/04:00pm 30.1 29.3 13.0 35 10.3 NE 9 15 5 8 1014.8 1012.8 0.0
26/03:30pm 30.6 29.8 13.0 34 10.7 N 9 15 5 8 1014.8 1012.8 0.0
26/03:00pm 31.3 30.0 12.6 31 11.3 NNE 11 20 6 11 1014.9 1012.9 0.0
26/02:30pm 31.5 31.0 12.8 32 11.3 N 7 17 4 9 1014.9 1012.9 0.0
26/02:00pm 30.6 29.3 12.5 33 10.9 NE 11 19 6 10 1015.3 1013.3 0.0
26/01:30pm 30.2 28.9 12.6 34 10.6 N 11 22 6 12 1015.5 1013.5 0.0
26/01:00pm 30.0 29.2 12.9 35 10.3 N 9 15 5 8 1015.8 1013.8 0.0
26/12:30pm 29.4 28.4 12.3 34 10.2 NE 9 17 5 9 1016.6 1014.6 0.0
26/12:00pm 29.7 28.7 13.5 37 9.8 N 11 24 6 13 1017.0 1015.0 0.0
26/11:30am 29.1 27.7 14.5 41 9.0 N 15 22 8 12 1017.4 1015.4 0.0
26/11:00am 27.1 27.0 13.8 44 8.0 N 7 15 4 8 1017.8 1015.8 0.0
26/10:30am 27.8 27.4 14.1 43 8.3 NNE 9 19 5 10 1018.0 1016.1 0.0
26/10:00am 27.2 26.0 13.9 44 8.0 ENE 13 24 7 13 1018.2 1016.3 0.0
26/09:30am 27.3 26.9 15.3 48 7.4 ENE 11 19 6 10 1018.3 1016.4 0.0
26/09:00am 25.5 24.8 15.5 54 6.2 NNE 13 28 7 15 1018.4 1016.5 0.0
26/08:30am 24.3 23.4 15.8 59 5.2 NNE 15 24 8 13 1018.3 1016.4 0.0
26/08:00am 23.9 23.7 16.7 64 4.5 ENE 13 22 7 12 1018.5 1016.6 0.0
26/07:30am 22.9 22.6 17.4 71 3.5 NNE 15 24 8 13 1018.5 1016.6 0.0
26/07:00am 23.2 24.1 18.3 74 3.1 E 11 17 6 9 1018.4 1016.5 0.0
26/06:30am 21.8 23.0 19.0 84 1.8 NE 11 19 6 10 1017.9 1015.9 0.0
26/06:00am 21.5 23.1 19.1 86 1.5 ENE 9 17 5 9 1017.4 1015.4 0.0
26/05:30am 20.7 22.6 19.0 90 1.1 ENE 7 13 4 7 1017.4 1015.4 0.0
26/05:00am 20.6 22.5 18.9 90 1.1 ENE 7 9 4 5 1017.2 1015.2 0.0
26/04:30am 20.9 22.4 19.0 89 1.2 E 9 15 5 8 1017.0 1015.0 0.0
26/04:00am 20.8 21.9 18.9 89 1.2 E 11 15 6 8 1016.6 1014.6 0.0
26/03:30am 21.0 22.9 18.9 88 1.3 E 7 11 4 6 1016.7 1014.7 0.0
26/03:00am 21.4 22.9 19.0 86 1.5 E 9 11 5 6 1016.6 1014.6 0.0
26/02:30am 21.8 23.1 19.2 85 1.7 E 11 15 6 8 1016.6 1014.6 0.0
26/02:00am 22.4 23.8 19.6 84 1.8 E 11 17 6 9 1016.6 1014.6 0.0
26/01:30am 22.1 22.7 19.5 85 1.7 E 15 20 8 11 1016.6 1014.6 0.0
26/01:00am 22.5 23.5 19.5 83 1.9 ESE 13 24 7 13 1017.0 1015.0 0.0
26/12:30am 23.7 23.8 19.2 76 2.9 ESE 17 24 9 13 1017.1 1015.1 0.0
26/12:00am 24.0 23.8 19.3 75 3.1 ESE 19 24 10 13 1017.4 1015.4 0.0
 
Date/Time
EST
Tmp

°C
App
Tmp
°C
Dew
Point
°C
Rel
Hum
%
Delta-T

°C
Wind Press
QNH
hPa
Press
MSL
hPa
Rain
since
9 am
mm
Dir
 
Spd
km/h
Gust
km/h
Spd
kts
Gust
kts
25/11:30pm 24.5 24.9 19.1 72 3.5 ESE 15 20 8 11 1017.7 1015.7 0.0
25/11:00pm 24.5 25.0 18.4 69 3.9 E 13 19 7 10 1017.6 1015.6 0.0
25/10:30pm 24.8 24.1 18.3 67 4.2 E 19 24 10 13 1017.6 1015.6 0.0
25/10:00pm 25.6 26.5 18.5 65 4.6 ESE 11 17 6 9 1017.7 1015.7 0.0
25/09:30pm 25.9 27.1 18.3 63 4.9 NE 9 17 5 9 1016.8 1014.8 0.0
25/09:00pm 26.1 26.3 17.7 60 5.4 NNE 13 19 7 10 1016.0 1014.1 0.0
25/08:30pm 26.7 26.7 17.2 56 6.0 NNE 13 20 7 11 1015.4 1013.4 0.0
25/08:00pm 27.5 27.1 16.1 49 7.1 NE 13 20 7 11 1015.0 1013.0 0.0
25/07:30pm 27.9 26.3 10.1 33 10.2 NE 9 17 5 9 1014.4 1012.4 0.0
25/07:00pm 28.7 26.9 9.4 30 10.9 NNE 9 13 5 7 1014.1 1012.1 0.0
25/06:30pm 30.0 27.4 9.5 28 11.7 NNE 13 20 7 11 1013.5 1011.5 0.0
25/06:00pm 31.0 29.5 10.4 28 12.0 N 9 13 5 7 1013.1 1011.1 0.0
25/05:30pm 32.2 30.4 10.8 27 12.6 N 11 17 6 9 1012.8 1010.8 0.0
25/05:00pm 32.1 30.5 10.2 26 12.8 NNE 9 15 5 8 1012.5 1010.5 0.0
25/04:30pm 32.6 30.9 11.2 27 12.7 NNE 11 15 6 8 1012.5 1010.5 0.0
25/04:00pm 33.7 32.6 12.1 27 13.1 NE 9 13 5 7 1012.7 1010.7 0.0
25/03:30pm 32.9 31.6 11.4 27 12.8 NE 9 15 5 8 1012.8 1010.8 0.0
25/03:00pm 33.3 31.4 11.8 27 12.9 N 13 20 7 11 1013.0 1011.0 0.0
25/02:30pm 33.2 31.2 12.8 29 12.4 E 15 22 8 12 1013.4 1011.4 0.0
25/02:00pm 32.0 30.5 14.2 34 11.0 NNW 15 22 8 12 1013.7 1011.7 0.0
25/01:30pm 32.1 31.1 14.7 35 10.9 NNE 13 20 7 11 1014.1 1012.1 0.0
25/01:00pm 32.1 32.8 15.6 37 10.4 SW 6 13 3 7 1014.6 1012.6 0.0
25/12:30pm 30.4 29.9 14.9 39 9.6 N 11 17 6 9 1015.0 1013.0 0.0
25/12:00pm 30.2 30.5 15.9 42 9.0 NW 9 17 5 9 1015.5 1013.5 0.0
25/11:30am 30.4 30.2 16.8 44 8.7 ENE 13 20 7 11 1015.9 1014.0 0.0
25/11:00am 28.2 27.7 15.8 47 7.8 NNW 13 20 7 11 1016.6 1014.6 0.0
25/10:30am 27.3 27.4 15.6 48 7.3 N 9 22 5 12 1017.1 1015.1 0.0
25/10:00am 26.8 26.7 17.0 55 6.2 NNW 13 24 7 13 1017.3 1015.3 0.0
25/09:30am 25.5 24.0 15.2 53 6.3 NNW 17 26 9 14 1017.6 1015.6 0.0
25/09:00am 24.7 23.4 16.7 61 5.0 N 19 24 10 13 1017.6 1015.6 0.0
25/08:30am 24.3 23.4 16.8 63 4.7 N 17 20 9 11 1017.8 1015.8 0.0
25/08:00am 23.3 23.1 16.6 66 4.2 N 13 20 7 11 1018.1 1016.2 0.0
25/07:30am 22.5 21.2 16.8 70 3.5 N 19 24 10 13 1017.9 1015.9 0.0
25/07:00am 21.3 20.8 16.9 76 2.7 NW 15 19 8 10 1018.2 1016.3 0.0
25/06:30am 20.2 19.2 16.6 80 2.2 NNW 17 26 9 14 1017.9 1015.9 0.0
25/06:00am 19.6 19.7 17.4 87 1.4 NNW 13 19 7 10 1017.6 1015.6 0.0
25/05:30am 18.6 19.2 16.9 90 1.0 N 9 11 5 6 1017.2 1015.2 0.0
25/05:00am 18.4 19.3 16.7 90 1.0 N 7 11 4 6 1017.0 1015.0 0.0
25/04:30am 18.5 19.0 16.5 88 1.2 NNE 9 13 5 7 1016.2 1014.3 0.0
25/04:00am 18.8 18.9 16.6 87 1.3 NNE 11 15 6 8 1015.9 1014.0 0.0
25/03:30am 19.0 20.1 16.6 86 1.5 N 6 11 3 6 1016.6 1014.6 0.0
25/03:00am 19.5 20.4 16.7 84 1.7 N 7 11 4 6 1016.4 1014.4 0.0
25/02:30am 19.9 19.8 16.9 83 1.9 N 13 17 7 9 1016.2 1014.3 0.0
25/02:00am 20.0 19.8 16.8 82 2.0 N 13 19 7 10 1016.2 1014.3 0.0
25/01:30am 20.2 19.3 16.8 81 2.1 N 17 26 9 14 1016.4 1014.4 0.0
25/01:00am 20.5 19.6 16.9 80 2.2 N 17 26 9 14 1016.7 1014.7 0.0
25/12:30am 20.5 20.2 17.3 82 2.0 N 15 20 8 11 1016.8 1014.8 0.0
25/12:00am 20.5 20.9 17.3 82 2.0 N 11 17 6 9 1017.2 1015.2 0.0
 
Date/Time
EST
Tmp

°C
App
Tmp
°C
Dew
Point
°C
Rel
Hum
%
Delta-T

°C
Wind Press
QNH
hPa
Press
MSL
hPa
Rain
since
9 am
mm
Dir
 
Spd
km/h
Gust
km/h
Spd
kts
Gust
kts
24/11:30pm 20.5 20.0 16.9 80 2.2 N 15 22 8 12 1017.1 1015.1 0.0
24/11:00pm 21.2 20.7 17.0 77 2.6 N 15 20 8 11 1017.0 1015.0 0.0
24/10:30pm 21.8 21.6 16.7 73 3.2 N 13 24 7 13 1017.0 1015.0 0.0
24/10:00pm 22.5 22.5 16.3 68 3.8 NNE 11 19 6 10 1016.8 1014.8 0.0
24/09:30pm 23.3 22.1 16.1 64 4.4 NNE 17 26 9 14 1016.6 1014.6 0.0
24/09:00pm 23.9 23.4 15.9 61 4.9 NNE 13 19 7 10 1016.4 1014.4 0.0
24/08:30pm 24.9 23.5 15.5 56 5.8 NNE 17 24 9 13 1015.8 1013.8 0.0
24/08:00pm 25.8 25.8 15.2 52 6.5 NE 9 17 5 9 1015.4 1013.4 0.0
24/07:30pm 26.9 25.9 14.6 46 7.5 NE 13 20 7 11 1014.7 1012.7 0.0
24/07:00pm 28.0 26.4 13.9 42 8.6 NNE 15 26 8 14 1014.2 1012.2 0.0
24/06:30pm 28.4 27.9 12.7 38 9.4 NE 7 11 4 6 1013.8 1011.8 0.0
24/06:00pm 29.7 28.8 12.6 35 10.2 NE 9 17 5 9 1013.5 1011.5 0.0
24/05:30pm 30.7 28.4 11.6 31 11.3 NNE 15 22 8 12 1013.2 1011.2 0.0
24/05:00pm 31.6 29.6 11.4 29 12.0 NE 13 19 7 10 1013.2 1011.2 0.0
24/04:30pm 31.5 29.1 11.3 29 12.0 NE 15 26 8 14 1013.1 1011.1 0.0
24/04:00pm 32.3 30.3 11.5 28 12.4 ENE 13 20 7 11 1013.5 1011.5 0.0
24/03:30pm 32.5 30.2 11.6 28 12.5 NE 15 20 8 11 1013.7 1011.7 0.0
24/03:00pm 31.9 29.1 10.0 26 12.7 NE 15 24 8 13 1014.1 1012.1 0.0
24/02:30pm 33.1 31.1 11.6 27 12.9 NE 13 24 7 13 1014.4 1012.4 0.0
24/02:00pm 33.0 31.6 12.1 28 12.6 N 11 22 6 12 1014.9 1012.9 0.0
24/01:30pm 31.4 28.9 11.2 29 11.9 NE 15 22 8 12 1015.4 1013.4 0.0
24/01:00pm 32.0 30.2 13.2 31 11.5 N 15 24 8 13 1015.9 1014.0 0.0
24/12:30pm 31.6 29.2 14.3 35 10.7 NNE 20 22 11 12 1016.5 1014.5 0.0
24/12:00pm 29.9 28.6 13.6 36 9.9 N 13 24 7 13 1017.1 1015.1 0.0
24/11:30am 29.8 28.4 14.4 39 9.5 NNE 15 26 8 14 1017.6 1015.6 0.0
24/11:00am 28.9 27.7 16.1 46 8.1 NW 17 30 9 16 1018.0 1016.1 0.0
24/10:30am 27.4 26.4 15.7 48 7.3 NW 15 20 8 11 1018.8 1016.8 0.0
24/10:00am 26.5 25.1 15.5 50 6.8 N 17 24 9 13 1019.2 1017.2 0.0
24/09:30am 26.8 26.1 16.4 53 6.5 NNW 15 24 8 13 1019.6 1017.6 0.0
24/09:00am 25.9 24.3 15.0 51 6.7 NNE 17 26 9 14 1019.7 1017.7 0.0
24/08:30am 24.8 24.0 16.2 58 5.4 N 15 22 8 12 1019.8 1017.8 0.0
24/08:00am 24.4 22.6 16.1 60 5.1 N 20 26 11 14 1019.8 1017.8 0.0
24/07:30am 22.4 21.1 16.7 70 3.5 N 19 26 10 14 1020.0 1018.1 0.0
24/07:00am 21.6 20.4 17.0 75 2.9 N 19 24 10 13 1019.7 1017.7 0.0
24/06:30am 20.8 20.2 17.6 82 2.0 N 17 22 9 12 1019.6 1017.6 0.0
24/06:00am 20.7 21.0 17.9 84 1.8 N 13 19 7 10 1019.4 1017.4 0.0
24/05:30am 19.8 21.4 17.8 88 1.3 NNE 6 9 3 5 1019.0 1017.0 0.0
24/05:00am 19.6 20.2 17.7 89 1.2 N 11 15 6 8 1018.8 1016.8 0.0
24/04:30am 19.6 20.3 17.0 85 1.6 N 9 11 5 6 1018.4 1016.5 0.0
24/04:00am 20.4 20.0 17.2 82 2.0 N 15 20 8 11 1018.3 1016.4 0.0
24/03:30am 20.9 21.0 17.5 81 2.1 NNE 13 19 7 10 1018.2 1016.3 0.0
24/03:00am 20.9 20.9 17.3 80 2.2 NNE 13 19 7 10 1018.2 1016.3 0.0
24/02:30am 21.0 21.5 17.4 80 2.3 N 11 20 6 11 1018.1 1016.2 0.0
24/02:00am 20.8 21.0 17.6 82 2.0 N 13 20 7 11 1017.9 1015.9 0.0
24/01:30am 20.7 21.3 17.7 83 1.9 N 11 20 6 11 1018.1 1016.2 0.0
24/01:00am 20.8 21.2 17.2 80 2.2 NE 11 20 6 11 1018.0 1016.1 0.0
24/12:30am 21.3 21.0 16.5 74 3.0 NNE 13 19 7 10 1018.1 1016.2 0.0
24/12:00am 21.8 21.7 16.1 70 3.5 NNE 11 17 6 9 1018.1 1016.2 0.0
 
Date/Time
EST
Tmp

°C
App
Tmp
°C
Dew
Point
°C
Rel
Hum
%
Delta-T

°C
Wind Press
QNH
hPa
Press
MSL
hPa
Rain
since
9 am
mm
Dir
 
Spd
km/h
Gust
km/h
Spd
kts
Gust
kts
23/11:30pm 22.3 22.6 15.9 67 3.9 NNE 9 13 5 7 1018.3 1016.4 0.0
23/11:00pm 22.8 22.5 15.4 63 4.5 NNE 11 15 6 8 1018.2 1016.3 0.0
23/10:30pm 23.6 22.7 14.9 58 5.3 NNE 13 20 7 11 1018.0 1016.1 0.0
23/10:00pm 24.4 23.3 14.2 53 6.1 NNE 13 20 7 11 1018.0 1016.1 0.0
23/09:30pm 25.0 24.3 14.2 51 6.5 NE 11 17 6 9 1018.0 1016.1 0.0
23/09:00pm 25.6 24.6 13.5 47 7.2 NE 11 19 6 10 1017.9 1015.9 0.0

Latest Capital City Observations: Canberra | Sydney | Melbourne | Brisbane | Adelaide | Perth | Hobart | Darwin

Other Formats:

Comma delimited format used in spreadsheet applications
http://www.bom.gov.au/fwo/IDQ60901/IDQ60901.94549.axf

JavaScript Object Notation format (JSON) in row-major order
http://www.bom.gov.au/fwo/IDQ60901/IDQ60901.94549.json